Time;durP1;ratioP1;P1;durP2;ratioP2;P2;SDS_P1;SDS_P2;PMS_P1;PMS_P2;Temp;Humidity;BMP_temperature;BMP_pressure;BME280_temperature;BME280_humidity;BME280_pressure;Samples;Min_cycle;Max_cycle;Signal;HPM_P1;HPM_P2
2022/09/22 00:00:41;;;;;;;3.77;3.40;;;;;;;-145.23;100.00;58621.06;4988690;28;20240;-54
2022/09/22 00:03:07;;;;;;;3.60;3.30;;;;;;;-145.23;100.00;58621.06;4990311;28;20245;-54
2022/09/22 00:05:34;;;;;;;3.27;2.97;;;;;;;-145.23;100.00;58621.06;5000792;28;20240;-54
2022/09/22 00:08:01;;;;;;;3.63;3.30;;;;;;;-145.23;100.00;58621.06;4991804;28;20240;-55
2022/09/22 00:10:29;;;;;;;3.60;3.30;;;;;;;-145.23;100.00;58621.06;4996769;28;20253;-58
2022/09/22 00:12:57;;;;;;;3.70;3.37;;;;;;;-145.23;100.00;58621.06;5000284;28;20233;-54
2022/09/22 00:15:23;;;;;;;3.90;3.60;;;;;;;-145.23;100.00;58621.06;4994600;28;20314;-54
2022/09/22 00:17:50;;;;;;;4.80;3.03;;;;;;;-145.23;100.00;58621.06;4995522;28;20237;-54
2022/09/22 00:20:16;;;;;;;3.40;3.10;;;;;;;-145.23;100.00;58621.06;4994188;28;20226;-54
2022/09/22 00:22:43;;;;;;;3.57;3.27;;;;;;;-145.23;100.00;58621.06;5000242;28;20715;-53
2022/09/22 00:25:10;;;;;;;4.13;3.73;;;;;;;-145.23;100.00;58621.06;4997771;28;20587;-53
2022/09/22 00:27:36;;;;;;;4.23;3.50;;;;;;;-145.23;100.00;58621.06;4988461;28;20253;-53
2022/09/22 00:30:05;;;;;;;3.30;3.00;;;;;;;-145.23;100.00;58621.06;4997192;28;20264;-54
2022/09/22 00:32:32;;;;;;;4.33;3.93;;;;;;;-145.23;100.00;58621.06;5001071;28;20256;-54
2022/09/22 00:34:58;;;;;;;3.87;3.43;;;;;;;-145.23;100.00;58621.06;5000038;28;20233;-54
2022/09/22 00:37:25;;;;;;;3.70;3.40;;;;;;;-145.23;100.00;58621.06;4995494;28;20256;-54
2022/09/22 00:39:53;;;;;;;4.60;3.53;;;;;;;-145.23;100.00;58621.06;4995198;28;20244;-54
2022/09/22 00:42:19;;;;;;;3.73;3.43;;;;;;;-145.23;100.00;58621.06;4999225;28;20241;-54
2022/09/22 00:44:46;;;;;;;5.07;3.93;;;;;;;-145.23;100.00;58621.06;4992550;28;20334;-54
2022/09/22 00:47:21;;;;;;;3.97;3.60;;;;;;;-145.23;100.00;58621.06;4999539;28;20759;-54
2022/09/22 00:49:52;;;;;;;4.07;3.50;;;;;;;-145.23;100.00;58621.06;4992041;28;20249;-54
2022/09/22 00:52:21;;;;;;;3.97;3.53;;;;;;;-145.23;100.00;58621.06;4999147;28;20605;-54
2022/09/22 00:54:48;;;;;;;4.27;3.43;;;;;;;-145.23;100.00;58621.06;4995922;28;20233;-54
2022/09/22 00:57:18;;;;;;;4.67;3.47;;;;;;;-145.23;100.00;58621.06;4998835;28;20236;-54
2022/09/22 00:59:46;;;;;;;3.90;3.60;;;;;;;-145.23;100.00;58621.06;4995174;28;20272;-53
2022/09/22 01:02:12;;;;;;;3.13;2.83;;;;;;;-145.23;100.00;58621.06;4992936;28;20241;-54
2022/09/22 01:04:41;;;;;;;4.03;3.63;;;;;;;-145.23;100.00;58621.06;5006581;28;20226;-53
2022/09/22 01:07:08;;;;;;;3.50;3.20;;;;;;;-145.23;100.00;58621.06;4998741;28;20322;-54
2022/09/22 01:09:34;;;;;;;3.53;3.23;;;;;;;-145.23;100.00;58621.06;4986832;28;20229;-54
2022/09/22 01:12:01;;;;;;;3.50;3.20;;;;;;;-145.23;100.00;58621.06;5007797;28;20233;-55
2022/09/22 01:14:38;;;;;;;3.97;3.37;;;;;;;-145.23;100.00;58621.06;4996660;28;20253;-53
2022/09/22 01:17:09;;;;;;;3.03;2.83;;;;;;;-145.23;100.00;58621.06;4999220;28;20232;-54
2022/09/22 01:20:26;;;;;;;3.23;2.87;;;;;;;-145.23;100.00;58621.06;4993152;28;20233;-54
2022/09/22 01:23:25;;;;;;;4.30;3.77;;;;;;;-145.23;100.00;58621.06;4995229;28;20236;-54
2022/09/22 01:26:06;;;;;;;3.40;3.03;;;;;;;-145.23;100.00;58621.06;5008833;28;20247;-54
2022/09/22 01:28:49;;;;;;;3.40;3.10;;;;;;;-145.23;100.00;58621.06;4993342;28;20233;-54
2022/09/22 01:31:20;;;;;;;3.20;2.83;;;;;;;-145.23;100.00;58621.06;5000430;28;20774;-54
2022/09/22 01:33:49;;;;;;;3.03;2.73;;;;;;;-145.23;100.00;58621.06;4995364;28;20236;-54
2022/09/22 01:36:22;;;;;;;5.63;5.10;;;;;;;-145.23;100.00;58621.06;4995273;28;20233;-54
2022/09/22 01:38:58;;;;;;;3.13;2.83;;;;;;;-145.23;100.00;58621.06;5006207;28;20268;-54
2022/09/22 01:41:41;;;;;;;2.80;2.53;;;;;;;-145.23;100.00;58621.06;4995452;28;20240;-54
2022/09/22 01:44:10;;;;;;;3.97;3.07;;;;;;;-145.23;100.00;58621.06;4995884;28;20233;-54
2022/09/22 01:46:40;;;;;;;3.50;3.20;;;;;;;-145.23;100.00;58621.06;5002878;28;20241;-61
2022/09/22 01:49:09;;;;;;;5.67;3.27;;;;;;;-145.23;100.00;58621.06;4997656;28;20237;-54
2022/09/22 01:51:39;;;;;;;4.60;4.07;;;;;;;-145.23;100.00;58621.06;4993852;28;20320;-55
2022/09/22 01:54:11;;;;;;;4.03;3.70;;;;;;;-145.23;100.00;58621.06;4996604;28;20328;-54
2022/09/22 01:56:39;;;;;;;3.40;3.10;;;;;;;-145.23;100.00;58621.06;4995643;28;20715;-54
2022/09/22 01:59:07;;;;;;;3.37;3.07;;;;;;;-145.23;100.00;58621.06;4992165;28;20246;-54
2022/09/22 02:01:36;;;;;;;3.97;3.30;;;;;;;-145.23;100.00;58621.06;4995463;28;20234;-54
2022/09/22 02:04:07;;;;;;;3.10;2.90;;;;;;;-145.23;100.00;58621.06;5006917;28;20341;-54
2022/09/22 02:06:37;;;;;;;3.73;2.83;;;;;;;-145.23;100.00;58621.06;4993762;28;20613;-54
2022/09/22 02:09:05;;;;;;;3.77;3.43;;;;;;;-145.23;100.00;58621.06;5002694;28;20247;-54
2022/09/22 02:11:32;;;;;;;3.40;3.10;;;;;;;-145.23;100.00;58621.06;4995530;28;20272;-54
2022/09/22 02:14:00;;;;;;;3.40;3.10;;;;;;;-145.23;100.00;58621.06;4993174;28;20717;-54
2022/09/22 02:16:26;;;;;;;3.57;3.23;;;;;;;-145.23;100.00;58621.06;5009148;28;20704;-54
2022/09/22 02:18:56;;;;;;;2.87;2.67;;;;;;;-145.23;100.00;58621.06;4988689;28;20265;-54
2022/09/22 02:21:26;;;;;;;3.60;3.30;;;;;;;-145.23;100.00;58621.06;4988007;28;20237;-54
2022/09/22 02:23:53;;;;;;;3.73;3.17;;;;;;;-145.23;100.00;58621.06;4990739;28;20312;-53
2022/09/22 02:26:22;;;;;;;4.23;3.00;;;;;;;-145.23;100.00;58621.06;4997244;28;20237;-54
2022/09/22 02:28:52;;;;;;;3.00;2.80;;;;;;;-145.23;100.00;58621.06;5000016;28;20241;-54
2022/09/22 02:31:18;;;;;;;3.33;3.03;;;;;;;-145.23;100.00;58621.06;5000940;28;20233;-54
2022/09/22 02:33:45;;;;;;;2.83;2.50;;;;;;;-145.23;100.00;58621.06;4990937;28;20635;-54
2022/09/22 02:36:25;;;;;;;4.23;3.37;;;;;;;-145.23;100.00;58621.06;4987592;28;20241;-53
2022/09/22 02:38:57;;;;;;;4.67;3.17;;;;;;;-145.23;100.00;58621.06;4997117;28;20252;-55
2022/09/22 02:41:27;;;;;;;4.57;3.20;;;;;;;-145.23;100.00;58621.06;4993570;28;20609;-54
2022/09/22 02:43:59;;;;;;;2.90;2.60;;;;;;;-145.23;100.00;58621.06;5011733;28;20237;-53
2022/09/22 02:46:30;;;;;;;2.80;2.60;;;;;;;-145.23;100.00;58621.06;5010794;28;20233;-54
2022/09/22 02:48:59;;;;;;;3.13;2.87;;;;;;;-145.23;100.00;58621.06;4998601;28;20636;-53
2022/09/22 02:51:27;;;;;;;4.77;4.33;;;;;;;-145.23;100.00;58621.06;4989203;28;20237;-54
2022/09/22 02:53:54;;;;;;;21.93;18.17;;;;;;;-145.23;100.00;58621.06;4989775;28;20242;-54
2022/09/22 02:56:21;;;;;;;5.17;4.67;;;;;;;-145.23;100.00;58621.06;4992415;28;22590;-54
2022/09/22 02:58:47;;;;;;;3.60;3.30;;;;;;;-145.23;100.00;58621.06;5002385;28;20233;-53
2022/09/22 03:01:14;;;;;;;4.13;3.17;;;;;;;-145.23;100.00;58621.06;4996422;28;20256;-54
2022/09/22 03:03:40;;;;;;;4.70;2.93;;;;;;;-145.23;100.00;58621.06;4993686;28;20241;-53
2022/09/22 03:06:07;;;;;;;3.33;2.90;;;;;;;-145.23;100.00;58621.06;4999334;28;20233;-54
2022/09/22 03:08:35;;;;;;;4.27;3.33;;;;;;;-145.23;100.00;58621.06;4990575;28;20719;-54
2022/09/22 03:11:01;;;;;;;3.00;2.80;;;;;;;-145.23;100.00;58621.06;5007048;28;20267;-54
2022/09/22 03:13:28;;;;;;;3.90;2.50;;;;;;;-145.23;100.00;58621.06;5008405;28;20240;-53
2022/09/22 03:15:55;;;;;;;3.53;2.93;;;;;;;-145.23;100.00;58621.06;4993407;28;20244;-53
2022/09/22 03:18:21;;;;;;;2.93;2.70;;;;;;;-145.23;100.00;58621.06;4996497;28;20320;-53
2022/09/22 03:20:47;;;;;;;3.60;3.30;;;;;;;-145.23;100.00;58621.06;5000562;28;20236;-53
2022/09/22 03:23:14;;;;;;;5.57;3.00;;;;;;;-145.23;100.00;58621.06;4996573;28;20276;-54
2022/09/22 03:25:42;;;;;;;2.90;2.67;;;;;;;-145.23;100.00;58621.06;5006021;28;20241;-53
2022/09/22 03:28:08;;;;;;;3.17;2.77;;;;;;;-145.23;100.00;58621.06;4998703;28;20758;-54
2022/09/22 03:30:36;;;;;;;3.07;2.73;;;;;;;-145.23;100.00;58621.06;4993112;28;20234;-53
2022/09/22 03:33:03;;;;;;;3.00;2.80;;;;;;;-145.23;100.00;58621.06;4999521;28;20252;-54
2022/09/22 03:35:29;;;;;;;3.77;2.90;;;;;;;-145.23;100.00;58621.06;4990215;28;20229;-53
2022/09/22 03:37:56;;;;;;;2.70;2.50;;;;;;;-145.23;100.00;58621.06;4999078;28;20724;-53
2022/09/22 03:40:22;;;;;;;2.73;2.53;;;;;;;-145.23;100.00;58621.06;5020146;28;20240;-53
2022/09/22 03:42:50;;;;;;;3.00;2.73;;;;;;;-145.23;100.00;58621.06;4996160;28;20715;-53
2022/09/22 03:45:17;;;;;;;2.60;2.40;;;;;;;-145.23;100.00;58621.06;5003893;28;20252;-53
2022/09/22 03:47:43;;;;;;;3.13;2.83;;;;;;;-145.23;100.00;58621.06;4995139;28;20237;-53
2022/09/22 03:50:10;;;;;;;3.07;2.80;;;;;;;-145.23;100.00;58621.06;4993899;28;20625;-55
2022/09/22 03:52:38;;;;;;;3.03;2.73;;;;;;;-145.23;100.00;58621.06;4999218;28;20933;-53
2022/09/22 03:55:06;;;;;;;4.97;2.97;;;;;;;-145.23;100.00;58621.06;5012565;28;20264;-53
2022/09/22 03:57:33;;;;;;;3.20;2.77;;;;;;;-145.23;100.00;58621.06;5009254;28;20234;-53
2022/09/22 04:00:01;;;;;;;3.10;2.67;;;;;;;-145.23;100.00;58621.06;5002036;28;20292;-53
2022/09/22 04:02:28;;;;;;;3.83;2.93;;;;;;;-145.23;100.00;58621.06;5000530;28;20245;-53
2022/09/22 04:04:54;;;;;;;3.73;3.43;;;;;;;-145.23;100.00;58621.06;5002230;28;20233;-53
2022/09/22 04:07:21;;;;;;;15.37;13.80;;;;;;;-145.23;100.00;58621.06;5024073;28;20240;-53
2022/09/22 04:09:47;;;;;;;44.17;35.97;;;;;;;-145.23;100.00;58621.06;4991994;28;20242;-53
2022/09/22 04:12:14;;;;;;;44.40;36.03;;;;;;;-145.23;100.00;58621.06;4995323;28;20597;-53
2022/09/22 04:14:40;;;;;;;10.33;9.23;;;;;;;-145.23;100.00;58621.06;4998487;28;20244;-53
2022/09/22 04:17:08;;;;;;;4.60;4.17;;;;;;;-145.23;100.00;58621.06;5002171;28;20779;-54
2022/09/22 04:19:35;;;;;;;4.60;3.40;;;;;;;-145.23;100.00;58621.06;4999821;28;20225;-53
2022/09/22 04:22:01;;;;;;;3.37;3.07;;;;;;;-145.23;100.00;58621.06;5000209;28;20720;-56
2022/09/22 04:24:28;;;;;;;4.73;3.00;;;;;;;-145.23;100.00;58621.06;5007197;28;20232;-53
2022/09/22 04:26:55;;;;;;;3.17;2.73;;;;;;;-145.23;100.00;58621.06;5009899;28;20236;-53
2022/09/22 04:29:21;;;;;;;4.53;2.83;;;;;;;-145.23;100.00;58621.06;4998780;28;20250;-53
2022/09/22 04:31:48;;;;;;;5.50;2.73;;;;;;;-145.23;100.00;58621.06;5002399;28;20233;-53
2022/09/22 04:34:16;;;;;;;3.77;2.90;;;;;;;-145.23;100.00;58621.06;4992976;28;20245;-53
2022/09/22 04:36:42;;;;;;;4.80;2.53;;;;;;;-145.23;100.00;58621.06;5001168;28;20266;-53
2022/09/22 04:39:09;;;;;;;2.73;2.53;;;;;;;-145.23;100.00;58621.06;5003928;28;20613;-53
2022/09/22 04:41:35;;;;;;;2.90;2.70;;;;;;;-145.23;100.00;58621.06;5003055;28;20853;-53
2022/09/22 04:44:02;;;;;;;2.77;2.57;;;;;;;-145.23;100.00;58621.06;5005967;28;20248;-53
2022/09/22 04:46:28;;;;;;;4.33;3.30;;;;;;;-145.23;100.00;58621.06;4996174;28;20234;-53
2022/09/22 04:48:55;;;;;;;3.60;3.30;;;;;;;-145.23;100.00;58621.06;5000980;28;20240;-53
2022/09/22 04:51:23;;;;;;;3.37;3.00;;;;;;;-145.23;100.00;58621.06;4993098;28;20266;-55
2022/09/22 04:53:50;;;;;;;4.40;2.77;;;;;;;-145.23;100.00;58621.06;5003147;28;20634;-55
2022/09/22 04:56:16;;;;;;;5.33;3.93;;;;;;;-145.23;100.00;58621.06;4998025;28;20719;-55
2022/09/22 04:58:43;;;;;;;3.90;3.50;;;;;;;-145.23;100.00;58621.06;5004398;28;20243;-53
2022/09/22 05:01:10;;;;;;;4.93;3.90;;;;;;;-145.23;100.00;58621.06;5015621;28;20237;-55
2022/09/22 05:03:37;;;;;;;5.20;3.27;;;;;;;-145.23;100.00;58621.06;4995651;28;20233;-55
2022/09/22 05:06:04;;;;;;;3.03;2.73;;;;;;;-145.23;100.00;58621.06;5007341;28;20621;-52
2022/09/22 05:08:32;;;;;;;7.77;3.10;;;;;;;-145.23;100.00;58621.06;5003341;28;20241;-53
2022/09/22 05:10:58;;;;;;;3.77;3.10;;;;;;;-145.23;100.00;58621.06;4994639;28;20226;-53
2022/09/22 05:13:25;;;;;;;6.23;3.20;;;;;;;-145.23;100.00;58621.06;4991878;28;20238;-55
2022/09/22 05:15:52;;;;;;;7.83;5.30;;;;;;;-145.23;100.00;58621.06;4997644;28;20964;-55
2022/09/22 05:18:19;;;;;;;7.93;4.57;;;;;;;-145.23;100.00;58621.06;4996075;28;20245;-53
2022/09/22 05:20:46;;;;;;;6.67;4.37;;;;;;;-145.23;100.00;58621.06;5011900;28;20668;-54
2022/09/22 05:23:12;;;;;;;3.60;3.30;;;;;;;-145.23;100.00;58621.06;4989491;28;20317;-53
2022/09/22 05:25:41;;;;;;;3.10;2.80;;;;;;;-145.23;100.00;58621.06;4995368;28;20238;-53
2022/09/22 05:28:07;;;;;;;7.63;4.10;;;;;;;-145.23;100.00;58621.06;4994863;28;20237;-53
2022/09/22 05:30:34;;;;;;;3.43;3.13;;;;;;;-145.23;100.00;58621.06;4996340;28;20234;-53
2022/09/22 05:33:00;;;;;;;4.10;3.50;;;;;;;-145.23;100.00;58621.06;4994755;28;20237;-53
2022/09/22 05:35:27;;;;;;;5.27;4.33;;;;;;;-145.23;100.00;58621.06;5005541;28;20234;-53
2022/09/22 05:37:54;;;;;;;4.37;4.00;;;;;;;-145.23;100.00;58621.06;5005902;28;20233;-52
2022/09/22 05:40:22;;;;;;;4.13;3.17;;;;;;;-145.23;100.00;58621.06;4993042;28;20245;-53
2022/09/22 05:42:52;;;;;;;4.27;3.90;;;;;;;-145.23;100.00;58621.06;5007016;28;20381;-53
2022/09/22 05:45:19;;;;;;;3.80;3.40;;;;;;;-145.23;100.00;58621.06;4999485;28;20234;-53
2022/09/22 05:47:46;;;;;;;4.03;3.63;;;;;;;-145.23;100.00;58621.06;4999650;28;20707;-53
2022/09/22 05:50:16;;;;;;;6.77;4.10;;;;;;;-145.23;100.00;58621.06;5007078;28;20247;-55
2022/09/22 05:52:42;;;;;;;5.50;4.57;;;;;;;-145.23;100.00;58621.06;5003058;28;20908;-54
2022/09/22 05:55:10;;;;;;;8.53;5.00;;;;;;;-145.23;100.00;58621.06;4998390;28;20237;-55
2022/09/22 05:57:36;;;;;;;4.53;4.13;;;;;;;-145.23;100.00;58621.06;4994359;28;20236;-54
2022/09/22 06:00:06;;;;;;;5.60;5.03;;;;;;;-145.23;100.00;58621.06;4990968;28;20246;-54
2022/09/22 06:02:33;;;;;;;8.50;5.60;;;;;;;-145.23;100.00;58621.06;5005514;28;20228;-54
2022/09/22 06:04:59;;;;;;;5.07;4.53;;;;;;;-145.23;100.00;58621.06;4998050;28;20273;-53
2022/09/22 06:07:26;;;;;;;6.27;5.07;;;;;;;-145.23;100.00;58621.06;4989726;28;20238;-54
2022/09/22 06:09:53;;;;;;;7.43;3.87;;;;;;;-145.23;100.00;58621.06;4986261;28;20242;-54
2022/09/22 06:12:19;;;;;;;6.53;4.37;;;;;;;-145.23;100.00;58621.06;4999523;28;20225;-54
2022/09/22 06:14:46;;;;;;;6.73;4.47;;;;;;;-145.23;100.00;58621.06;4993427;28;20245;-54
2022/09/22 06:17:14;;;;;;;7.73;4.40;;;;;;;-145.23;100.00;58621.06;4992827;28;20321;-54
2022/09/22 06:19:42;;;;;;;6.00;4.60;;;;;;;-145.23;100.00;58621.06;4990747;28;20234;-54
2022/09/22 06:22:10;;;;;;;4.63;3.80;;;;;;;-145.23;100.00;58621.06;5001098;28;20291;-54
2022/09/22 06:24:36;;;;;;;5.67;3.73;;;;;;;-145.23;100.00;58621.06;4994080;28;20232;-54
2022/09/22 06:27:03;;;;;;;4.27;3.87;;;;;;;-145.23;100.00;58621.06;4989912;28;20248;-54
2022/09/22 06:29:29;;;;;;;4.60;4.17;;;;;;;-145.23;100.00;58621.06;5006493;28;20255;-53
2022/09/22 06:31:56;;;;;;;5.70;3.60;;;;;;;-145.23;100.00;58621.06;4992023;28;20237;-54
2022/09/22 06:34:25;;;;;;;6.07;5.17;;;;;;;-145.23;100.00;58621.06;4994534;28;20250;-54
2022/09/22 06:36:55;;;;;;;8.43;5.57;;;;;;;-145.23;100.00;58621.06;4995711;28;20353;-54
2022/09/22 06:39:21;;;;;;;5.17;4.77;;;;;;;-145.23;100.00;58621.06;4995949;28;20321;-54
2022/09/22 06:41:48;;;;;;;6.53;5.00;;;;;;;-145.23;100.00;58621.06;4989919;28;20283;-54
2022/09/22 06:44:14;;;;;;;7.30;5.60;;;;;;;-145.23;100.00;58621.06;5005945;28;20720;-53
2022/09/22 06:46:41;;;;;;;7.10;6.00;;;;;;;-145.23;100.00;58621.06;5003147;28;20238;-54
2022/09/22 06:49:08;;;;;;;7.57;6.77;;;;;;;-145.23;100.00;58621.06;4988877;28;20258;-54
2022/09/22 06:51:37;;;;;;;8.67;5.47;;;;;;;-145.23;100.00;58621.06;4996303;28;20225;-54
2022/09/22 06:54:05;;;;;;;10.33;7.07;;;;;;;-145.23;100.00;58621.06;5001659;28;20769;-54
2022/09/22 06:56:34;;;;;;;8.80;5.60;;;;;;;-145.23;100.00;58621.06;4999826;28;20234;-57
2022/09/22 06:59:01;;;;;;;6.10;5.50;;;;;;;-145.23;100.00;58621.06;5008357;28;20249;-53
2022/09/22 07:01:30;;;;;;;5.87;5.00;;;;;;;-145.23;100.00;58621.06;4991047;28;20318;-54
2022/09/22 07:03:56;;;;;;;6.73;5.10;;;;;;;-145.23;100.00;58621.06;4994696;28;20237;-55
2022/09/22 07:06:23;;;;;;;4.10;3.67;;;;;;;-145.23;100.00;58621.06;4994874;28;20238;-54
2022/09/22 07:08:51;;;;;;;6.43;5.30;;;;;;;-145.23;100.00;58621.06;4992366;28;20225;-54
2022/09/22 07:11:22;;;;;;;5.33;4.63;;;;;;;-145.23;100.00;58621.06;4994729;28;20233;-53
2022/09/22 07:13:50;;;;;;;4.93;4.37;;;;;;;-145.23;100.00;58621.06;5008549;28;21062;-53
2022/09/22 07:16:18;;;;;;;6.77;4.23;;;;;;;-145.23;100.00;58621.06;4996301;28;20233;-54
2022/09/22 07:18:46;;;;;;;6.33;4.57;;;;;;;-145.23;100.00;58621.06;4994530;28;20232;-54
2022/09/22 07:21:14;;;;;;;5.33;4.90;;;;;;;-145.23;100.00;58621.06;4990956;28;20241;-54
2022/09/22 07:23:43;;;;;;;5.10;4.20;;;;;;;-145.23;100.00;58621.06;5001330;28;20759;-55
2022/09/22 07:26:12;;;;;;;4.43;4.03;;;;;;;-145.23;100.00;58621.06;4995152;28;20241;-54
2022/09/22 07:28:39;;;;;;;6.03;4.93;;;;;;;-145.23;100.00;58621.06;5009815;28;20248;-54
2022/09/22 07:31:07;;;;;;;4.77;4.13;;;;;;;-145.23;100.00;58621.06;4992256;28;20636;-54
2022/09/22 07:33:34;;;;;;;5.00;4.50;;;;;;;-145.23;100.00;58621.06;4998640;28;20232;-54
2022/09/22 07:36:04;;;;;;;4.87;4.30;;;;;;;-145.23;100.00;58621.06;4997638;28;20253;-54
2022/09/22 07:38:35;;;;;;;5.87;3.77;;;;;;;-145.23;100.00;58621.06;4996883;28;20755;-54
2022/09/22 07:41:05;;;;;;;3.90;3.57;;;;;;;-145.23;100.00;58621.06;5009393;28;20248;-54
2022/09/22 07:43:34;;;;;;;6.93;3.83;;;;;;;-145.23;100.00;58621.06;4996146;28;20297;-54
2022/09/22 07:46:00;;;;;;;6.70;4.30;;;;;;;-145.23;100.00;58621.06;4995855;28;20718;-54
2022/09/22 07:48:41;;;;;;;5.40;4.33;;;;;;;-145.23;100.00;58621.06;4997217;28;20230;-55
2022/09/22 07:51:10;;;;;;;4.00;3.67;;;;;;;-145.23;100.00;58621.06;4991778;28;20721;-54
2022/09/22 07:53:38;;;;;;;4.10;3.70;;;;;;;-145.23;100.00;58621.06;4995457;28;20226;-54
2022/09/22 07:56:05;;;;;;;4.67;4.27;;;;;;;-145.23;100.00;58621.06;4997155;28;20321;-54
2022/09/22 07:58:33;;;;;;;4.72;4.32;;;;;;;-145.23;100.00;58621.06;5013451;28;20269;-54
2022/09/22 08:01:05;;;;;;;4.70;3.73;;;;;;;-145.23;100.00;58621.06;5014482;28;20233;-54
2022/09/22 08:03:32;;;;;;;4.20;3.83;;;;;;;-145.23;100.00;58621.06;4996969;28;22293;-54
2022/09/22 08:06:01;;;;;;;3.80;3.35;;;;;;;-145.23;100.00;58621.06;4992632;28;20238;-54
2022/09/22 08:08:33;;;;;;;7.07;4.50;;;;;;;-145.23;100.00;58621.06;5000689;28;20835;-54
2022/09/22 08:11:04;;;;;;;5.05;4.55;;;;;;;-145.23;100.00;58621.06;4998351;28;20340;-54
2022/09/22 08:13:30;;;;;;;7.53;5.82;;;;;;;-145.23;100.00;58621.06;4988408;28;20230;-54
2022/09/22 08:15:58;;;;;;;6.80;4.35;;;;;;;-145.23;100.00;58621.06;4991036;28;20244;-54
2022/09/22 08:18:25;;;;;;;5.88;4.72;;;;;;;-145.23;100.00;58621.06;4992755;28;20716;-54
2022/09/22 08:20:52;;;;;;;5.28;4.78;;;;;;;-145.23;100.00;58621.06;4992469;28;20301;-55
2022/09/22 08:23:18;;;;;;;5.63;4.35;;;;;;;-145.23;100.00;58621.06;5004191;28;21038;-55
2022/09/22 08:25:45;;;;;;;5.40;4.70;;;;;;;-145.23;100.00;58621.06;4990746;28;20324;-55
2022/09/22 08:28:11;;;;;;;3.80;3.40;;;;;;;-145.23;100.00;58621.06;4998587;28;20232;-56
2022/09/22 08:30:38;;;;;;;3.88;3.10;;;;;;;-145.23;100.00;58621.06;4994593;28;20238;-55
2022/09/22 08:33:06;;;;;;;3.80;3.17;;;;;;;-145.23;100.00;58621.06;4993983;28;20312;-56
2022/09/22 08:35:33;;;;;;;1.90;1.80;;;;;;;-145.23;100.00;58621.06;4986229;28;20244;-56
2022/09/22 08:37:59;;;;;;;2.40;2.20;;;;;;;-145.23;100.00;58621.06;4987089;28;20252;-54
2022/09/22 08:40:26;;;;;;;6.03;3.40;;;;;;;-145.23;100.00;58621.06;4985856;28;20237;-56
2022/09/22 08:42:54;;;;;;;3.90;2.65;;;;;;;-145.23;100.00;58621.06;4994107;28;20245;-55
2022/09/22 08:45:27;;;;;;;2.95;2.65;;;;;;;-145.23;100.00;58621.06;5004437;28;20256;-55
2022/09/22 08:53:34;;;;;;;2.90;1.60;;;;;;;-145.23;100.00;58621.06;4992281;28;20256;-55
2022/09/22 08:56:05;;;;;;;2.67;1.55;;;;;;;-145.23;100.00;58621.06;4991172;28;20230;-55
2022/09/22 08:58:44;;;;;;;1.00;0.90;;;;;;;-145.23;100.00;58621.06;4991724;28;20229;-56
2022/09/22 09:01:21;;;;;;;1.35;1.25;;;;;;;-145.23;100.00;58621.06;5001276;28;20221;-57
2022/09/22 09:03:59;;;;;;;1.50;1.17;;;;;;;-145.23;100.00;58621.06;4994411;28;20265;-55
2022/09/22 09:06:34;;;;;;;1.80;1.35;;;;;;;-145.23;100.00;58621.06;4992926;28;20236;-56
2022/09/22 09:09:16;;;;;;;1.65;1.20;;;;;;;-145.23;100.00;58621.06;4984957;28;20328;-55
2022/09/22 09:12:05;;;;;;;1.88;0.90;;;;;;;-145.23;100.00;58621.06;4995836;28;20229;-57
2022/09/22 09:14:54;;;;;;;1.20;1.10;;;;;;;-145.23;100.00;58621.06;4995382;28;20233;-56
2022/09/22 09:17:24;;;;;;;2.17;1.02;;;;;;;-145.23;100.00;58621.06;4996632;28;20866;-55
2022/09/22 09:19:53;;;;;;;0.70;0.65;;;;;;;-145.23;100.00;58621.06;4990521;28;20774;-55
2022/09/22 09:22:24;;;;;;;1.27;0.70;;;;;;;-145.23;100.00;58621.06;4983180;28;20284;-55
2022/09/22 09:24:54;;;;;;;2.55;1.05;;;;;;;-145.23;100.00;58621.06;4989481;28;20715;-55
2022/09/22 09:27:23;;;;;;;2.00;1.00;;;;;;;-145.23;100.00;58621.06;4993605;28;20237;-55
2022/09/22 09:29:57;;;;;;;4.32;1.38;;;;;;;-145.23;100.00;58621.06;4987854;28;20263;-55
2022/09/22 09:32:32;;;;;;;0.93;0.82;;;;;;;-145.23;100.00;58621.06;4988816;28;20307;-55
2022/09/22 09:34:59;;;;;;;0.90;0.90;;;;;;;-145.23;100.00;58621.06;4997509;28;20235;-56
2022/09/22 09:37:28;;;;;;;4.82;1.08;;;;;;;-145.23;100.00;58621.06;4998904;28;20248;-56
2022/09/22 09:39:55;;;;;;;0.82;0.73;;;;;;;-145.23;100.00;58621.06;4992001;28;20770;-56
2022/09/22 09:42:24;;;;;;;1.30;0.68;;;;;;;-145.23;100.00;58621.06;4991779;28;20232;-56
2022/09/22 09:44:52;;;;;;;1.02;0.75;;;;;;;-145.23;100.00;58621.06;4988847;28;21119;-55
2022/09/22 09:47:31;;;;;;;0.57;0.57;;;;;;;-145.23;100.00;58621.06;4986974;28;20230;-57
2022/09/22 09:49:58;;;;;;;0.80;0.80;;;;;;;-145.23;100.00;58621.06;4991274;28;20249;-57
2022/09/22 09:52:27;;;;;;;0.88;0.63;;;;;;;-145.23;100.00;58621.06;5003236;28;20236;-55
2022/09/22 09:54:54;;;;;;;1.17;0.68;;;;;;;-145.23;100.00;58621.06;4989142;28;20241;-55
2022/09/22 09:57:21;;;;;;;0.60;0.60;;;;;;;-145.23;100.00;58621.06;4996207;28;20230;-55
2022/09/22 10:02:36;;;;;;;4.05;0.88;;;;;;;-145.23;100.00;58621.06;4990589;28;20236;-55
2022/09/22 10:05:06;;;;;;;0.82;0.70;;;;;;;-145.23;100.00;58621.06;4997696;28;20245;-54
2022/09/22 10:07:43;;;;;;;0.50;0.50;;;;;;;-145.23;100.00;58621.06;4999430;28;20234;-56
2022/09/22 10:10:32;;;;;;;1.83;0.75;;;;;;;-145.23;100.00;58621.06;4988591;28;20262;-56
2022/09/22 10:13:23;;;;;;;1.27;0.73;;;;;;;-145.23;100.00;58621.06;4992103;28;21554;-55
2022/09/22 10:16:02;;;;;;;0.50;0.50;;;;;;;-145.23;100.00;58621.06;4991639;28;20237;-55
2022/09/22 10:18:34;;;;;;;1.77;0.95;;;;;;;-145.23;100.00;58621.06;4989175;28;20287;-56
2022/09/22 10:21:05;;;;;;;1.25;0.68;;;;;;;-145.23;100.00;58621.06;4991804;28;20335;-55
2022/09/22 10:23:34;;;;;;;0.90;0.90;;;;;;;-145.23;100.00;58621.06;4985649;28;20707;-55
2022/09/22 10:26:21;;;;;;;0.85;0.75;;;;;;;-145.23;100.00;58621.06;4990485;28;20236;-55
2022/09/22 10:29:06;;;;;;;1.75;0.88;;;;;;;-145.23;100.00;58621.06;4986147;28;20248;-55
2022/09/22 10:31:33;;;;;;;1.55;0.80;;;;;;;-145.23;100.00;58621.06;4989770;28;20704;-56
2022/09/22 10:34:00;;;;;;;0.80;0.70;;;;;;;-145.23;100.00;58621.06;4988774;28;20233;-55
2022/09/22 10:36:28;;;;;;;1.50;0.73;;;;;;;-145.23;100.00;58621.06;5000371;28;20279;-56
2022/09/22 10:38:56;;;;;;;1.60;0.60;;;;;;;-145.23;100.00;58621.06;4988159;28;20242;-56
2022/09/22 10:41:26;;;;;;;0.65;0.65;;;;;;;-145.23;100.00;58621.06;4990639;28;20346;-56
2022/09/22 10:43:54;;;;;;;0.77;0.63;;;;;;;-145.23;100.00;58621.06;4987148;28;20329;-62
2022/09/22 10:46:38;;;;;;;0.80;0.50;;;;;;;-145.23;100.00;58621.06;4993175;28;20240;-56
2022/09/22 10:49:12;;;;;;;0.88;0.70;;;;;;;-145.23;100.00;58621.06;4991886;28;20703;-57
2022/09/22 10:51:53;;;;;;;2.25;1.17;;;;;;;-145.23;100.00;58621.06;4991942;28;20237;-55
2022/09/22 10:54:35;;;;;;;3.80;0.73;;;;;;;-145.23;100.00;58621.06;4993895;28;20264;-56
2022/09/22 10:57:08;;;;;;;0.45;0.45;;;;;;;-145.23;100.00;58621.06;4990170;28;20241;-56
2022/09/22 10:59:47;;;;;;;0.73;0.73;;;;;;;-145.23;100.00;58621.06;4994638;28;21077;-58
2022/09/22 11:02:56;;;;;;;0.50;0.50;;;;;;;-145.23;100.00;58621.06;4999819;28;20232;-57
2022/09/22 11:14:03;;;;;;;1.00;0.82;;;;;;;-145.23;100.00;58621.06;4998661;28;20236;-54
2022/09/22 11:16:57;;;;;;;0.60;0.60;;;;;;;-145.23;100.00;58621.06;4990830;28;20423;-56
2022/09/22 11:19:40;;;;;;;0.60;0.60;;;;;;;-145.23;100.00;58621.06;4987074;28;20329;-55
2022/09/22 11:22:21;;;;;;;2.92;0.90;;;;;;;-145.23;100.00;58621.06;4983923;28;20717;-56
2022/09/22 11:25:01;;;;;;;0.80;0.80;;;;;;;-145.23;100.00;58621.06;4994076;28;20317;-55
2022/09/22 11:27:40;;;;;;;0.95;0.70;;;;;;;-145.23;100.00;58621.06;4995238;28;20239;-55
2022/09/22 11:30:19;;;;;;;0.80;0.80;;;;;;;-145.23;100.00;58621.06;4994825;28;20252;-56
2022/09/22 11:32:57;;;;;;;0.70;0.70;;;;;;;-145.23;100.00;58621.06;4990251;28;20268;-55
2022/09/22 11:35:44;;;;;;;1.40;0.68;;;;;;;-145.23;100.00;58621.06;4985463;28;20241;-55
2022/09/22 11:38:21;;;;;;;0.60;0.60;;;;;;;-145.23;100.00;58621.06;4978940;28;20468;-55